sensor_id;sensor_type;location;lat;lon;timestamp;P1;P2;P0
61815;PMS5003;57055;-35.296;149.168;2023-05-08T00:00:34;0;0;
61815;PMS5003;57055;-35.296;149.168;2023-05-08T00:03:03;0;0;
61815;PMS5003;57055;-35.296;149.168;2023-05-08T00:05:33;1;1;
61815;PMS5003;57055;-35.296;149.168;2023-05-08T00:08:02;0;0;
61815;PMS5003;57055;-35.296;149.168;2023-05-08T00:10:30;0;0;
61815;PMS5003;57055;-35.296;149.168;2023-05-08T00:12:59;0;0;
61815;PMS5003;57055;-35.296;149.168;2023-05-08T00:15:28;1;1;
61815;PMS5003;57055;-35.296;149.168;2023-05-08T00:17:57;0;0;
61815;PMS5003;57055;-35.296;149.168;2023-05-08T00:20:26;0;0;
61815;PMS5003;57055;-35.296;149.168;2023-05-08T00:22:54;0;0;
61815;PMS5003;57055;-35.296;149.168;2023-05-08T00:25:23;0;0;
61815;PMS5003;57055;-35.296;149.168;2023-05-08T00:27:53;0;0;
61815;PMS5003;57055;-35.296;149.168;2023-05-08T00:30:22;1;0;
61815;PMS5003;57055;-35.296;149.168;2023-05-08T00:32:50;0;0;
61815;PMS5003;57055;-35.296;149.168;2023-05-08T00:35:19;0;0;
61815;PMS5003;57055;-35.296;149.168;2023-05-08T00:37:48;0;0;
61815;PMS5003;57055;-35.296;149.168;2023-05-08T00:40:17;0;0;
61815;PMS5003;57055;-35.296;149.168;2023-05-08T00:42:45;0;0;
61815;PMS5003;57055;-35.296;149.168;2023-05-08T00:45:14;0;0;
61815;PMS5003;57055;-35.296;149.168;2023-05-08T00:47:43;0;0;
61815;PMS5003;57055;-35.296;149.168;2023-05-08T00:50:12;0;0;
61815;PMS5003;57055;-35.296;149.168;2023-05-08T00:52:40;0;0;
61815;PMS5003;57055;-35.296;149.168;2023-05-08T00:55:09;0;0;
61815;PMS5003;57055;-35.296;149.168;2023-05-08T00:57:40;0;0;
61815;PMS5003;57055;-35.296;149.168;2023-05-08T01:00:09;0;0;
61815;PMS5003;57055;-35.296;149.168;2023-05-08T01:02:39;0;0;
61815;PMS5003;57055;-35.296;149.168;2023-05-08T01:05:09;0;0;
61815;PMS5003;57055;-35.296;149.168;2023-05-08T01:07:39;0;0;
61815;PMS5003;57055;-35.296;149.168;2023-05-08T01:10:08;0;0;
61815;PMS5003;57055;-35.296;149.168;2023-05-08T01:12:42;1;1;
61815;PMS5003;57055;-35.296;149.168;2023-05-08T01:15:23;0;0;
61815;PMS5003;57055;-35.296;149.168;2023-05-08T01:17:59;0;0;
61815;PMS5003;57055;-35.296;149.168;2023-05-08T01:20:41;0;0;
61815;PMS5003;57055;-35.296;149.168;2023-05-08T01:24:33;0;0;
61815;PMS5003;57055;-35.296;149.168;2023-05-08T01:27:52;0;0;
61815;PMS5003;57055;-35.296;149.168;2023-05-08T01:30:43;0;0;
61815;PMS5003;57055;-35.296;149.168;2023-05-08T01:33:29;0;0;
61815;PMS5003;57055;-35.296;149.168;2023-05-08T01:36:13;0;0;
61815;PMS5003;57055;-35.296;149.168;2023-05-08T01:38:52;1;0;
61815;PMS5003;57055;-35.296;149.168;2023-05-08T01:41:27;0;0;
61815;PMS5003;57055;-35.296;149.168;2023-05-08T01:44:05;0;0;
61815;PMS5003;57055;-35.296;149.168;2023-05-08T01:46:40;1;1;
61815;PMS5003;57055;-35.296;149.168;2023-05-08T01:49:15;0;0;
61815;PMS5003;57055;-35.296;149.168;2023-05-08T01:51:52;0;0;
61815;PMS5003;57055;-35.296;149.168;2023-05-08T01:54:26;0;0;
61815;PMS5003;57055;-35.296;149.168;2023-05-08T01:57:00;0;0;
61815;PMS5003;57055;-35.296;149.168;2023-05-08T01:59:31;1;0;
61815;PMS5003;57055;-35.296;149.168;2023-05-08T02:02:02;0;0;
61815;PMS5003;57055;-35.296;149.168;2023-05-08T02:04:33;0;0;
61815;PMS5003;57055;-35.296;149.168;2023-05-08T02:07:02;0;0;
61815;PMS5003;57055;-35.296;149.168;2023-05-08T02:09:32;0;0;
61815;PMS5003;57055;-35.296;149.168;2023-05-08T02:12:03;0;0;
61815;PMS5003;57055;-35.296;149.168;2023-05-08T02:14:35;0;0;
61815;PMS5003;57055;-35.296;149.168;2023-05-08T02:17:06;0;0;
61815;PMS5003;57055;-35.296;149.168;2023-05-08T02:19:38;0;0;
61815;PMS5003;57055;-35.296;149.168;2023-05-08T02:22:09;0;0;
61815;PMS5003;57055;-35.296;149.168;2023-05-08T02:24:40;0;0;
61815;PMS5003;57055;-35.296;149.168;2023-05-08T02:27:11;0;0;
61815;PMS5003;57055;-35.296;149.168;2023-05-08T02:29:42;0;0;
61815;PMS5003;57055;-35.296;149.168;2023-05-08T02:32:11;0;0;
61815;PMS5003;57055;-35.296;149.168;2023-05-08T02:34:42;0;0;
61815;PMS5003;57055;-35.296;149.168;2023-05-08T02:37:11;0;0;
61815;PMS5003;57055;-35.296;149.168;2023-05-08T02:39:42;0;0;
61815;PMS5003;57055;-35.296;149.168;2023-05-08T02:42:13;0;0;
61815;PMS5003;57055;-35.296;149.168;2023-05-08T02:44:42;0;0;
61815;PMS5003;57055;-35.296;149.168;2023-05-08T02:47:13;0;0;
61815;PMS5003;57055;-35.296;149.168;2023-05-08T02:49:49;0;0;
61815;PMS5003;57055;-35.296;149.168;2023-05-08T02:52:23;0;0;
61815;PMS5003;57055;-35.296;149.168;2023-05-08T02:54:57;0;0;
61815;PMS5003;57055;-35.296;149.168;2023-05-08T02:57:32;0;0;
61815;PMS5003;57055;-35.296;149.168;2023-05-08T03:00:11;0;0;
61815;PMS5003;57055;-35.296;149.168;2023-05-08T03:02:48;1;0;
61815;PMS5003;57055;-35.296;149.168;2023-05-08T03:05:23;0;0;
61815;PMS5003;57055;-35.296;149.168;2023-05-08T03:07:59;0;0;
61815;PMS5003;57055;-35.296;149.168;2023-05-08T03:10:33;0;0;
61815;PMS5003;57055;-35.296;149.168;2023-05-08T03:13:06;0;0;
61815;PMS5003;57055;-35.296;149.168;2023-05-08T03:15:41;0;0;
61815;PMS5003;57055;-35.296;149.168;2023-05-08T03:18:13;0;0;
61815;PMS5003;57055;-35.296;149.168;2023-05-08T03:20:46;0;0;
61815;PMS5003;57055;-35.296;149.168;2023-05-08T03:23:19;0;0;
61815;PMS5003;57055;-35.296;149.168;2023-05-08T03:25:51;0;0;
61815;PMS5003;57055;-35.296;149.168;2023-05-08T03:28:21;0;0;
61815;PMS5003;57055;-35.296;149.168;2023-05-08T03:30:51;0;0;
61815;PMS5003;57055;-35.296;149.168;2023-05-08T03:33:22;0;0;
61815;PMS5003;57055;-35.296;149.168;2023-05-08T03:35:53;0;0;
61815;PMS5003;57055;-35.296;149.168;2023-05-08T03:38:23;0;0;
61815;PMS5003;57055;-35.296;149.168;2023-05-08T03:40:52;0;0;
61815;PMS5003;57055;-35.296;149.168;2023-05-08T03:43:20;0;0;
61815;PMS5003;57055;-35.296;149.168;2023-05-08T03:45:50;0;0;
61815;PMS5003;57055;-35.296;149.168;2023-05-08T03:48:20;0;0;
61815;PMS5003;57055;-35.296;149.168;2023-05-08T03:50:49;0;0;
61815;PMS5003;57055;-35.296;149.168;2023-05-08T03:53:19;0;0;
61815;PMS5003;57055;-35.296;149.168;2023-05-08T03:55:48;0;0;
61815;PMS5003;57055;-35.296;149.168;2023-05-08T03:58:18;0;0;
61815;PMS5003;57055;-35.296;149.168;2023-05-08T04:00:57;0;0;
61815;PMS5003;57055;-35.296;149.168;2023-05-08T04:03:43;0;0;
61815;PMS5003;57055;-35.296;149.168;2023-05-08T04:06:23;0;0;
61815;PMS5003;57055;-35.296;149.168;2023-05-08T04:09:00;0;0;
61815;PMS5003;57055;-35.296;149.168;2023-05-08T04:11:37;0;0;
61815;PMS5003;57055;-35.296;149.168;2023-05-08T04:14:15;1;0;
61815;PMS5003;57055;-35.296;149.168;2023-05-08T04:16:51;0;0;
61815;PMS5003;57055;-35.296;149.168;2023-05-08T04:19:27;0;0;
61815;PMS5003;57055;-35.296;149.168;2023-05-08T04:22:04;0;0;
61815;PMS5003;57055;-35.296;149.168;2023-05-08T04:24:36;0;0;
61815;PMS5003;57055;-35.296;149.168;2023-05-08T04:27:09;0;0;
61815;PMS5003;57055;-35.296;149.168;2023-05-08T04:29:39;0;0;
61815;PMS5003;57055;-35.296;149.168;2023-05-08T04:32:09;0;0;
61815;PMS5003;57055;-35.296;149.168;2023-05-08T04:34:38;0;0;
61815;PMS5003;57055;-35.296;149.168;2023-05-08T04:37:07;0;0;
61815;PMS5003;57055;-35.296;149.168;2023-05-08T04:39:49;0;0;
61815;PMS5003;57055;-35.296;149.168;2023-05-08T04:42:18;0;0;
61815;PMS5003;57055;-35.296;149.168;2023-05-08T04:44:47;1;0;
61815;PMS5003;57055;-35.296;149.168;2023-05-08T04:47:16;0;0;
61815;PMS5003;57055;-35.296;149.168;2023-05-08T04:49:45;0;0;
61815;PMS5003;57055;-35.296;149.168;2023-05-08T04:52:14;0;0;
61815;PMS5003;57055;-35.296;149.168;2023-05-08T04:54:43;0;0;
61815;PMS5003;57055;-35.296;149.168;2023-05-08T04:57:12;0;0;
61815;PMS5003;57055;-35.296;149.168;2023-05-08T04:59:40;0;0;
61815;PMS5003;57055;-35.296;149.168;2023-05-08T05:02:09;0;0;
61815;PMS5003;57055;-35.296;149.168;2023-05-08T05:04:38;0;0;
61815;PMS5003;57055;-35.296;149.168;2023-05-08T05:07:06;0;0;
61815;PMS5003;57055;-35.296;149.168;2023-05-08T05:09:35;0;0;
61815;PMS5003;57055;-35.296;149.168;2023-05-08T05:12:05;0;0;
61815;PMS5003;57055;-35.296;149.168;2023-05-08T05:14:33;0;0;
61815;PMS5003;57055;-35.296;149.168;2023-05-08T05:17:02;0;0;
61815;PMS5003;57055;-35.296;149.168;2023-05-08T05:19:31;0;0;
61815;PMS5003;57055;-35.296;149.168;2023-05-08T05:22:00;0;0;
61815;PMS5003;57055;-35.296;149.168;2023-05-08T05:24:29;0;0;
61815;PMS5003;57055;-35.296;149.168;2023-05-08T05:26:58;0;0;
61815;PMS5003;57055;-35.296;149.168;2023-05-08T05:29:27;0;0;
61815;PMS5003;57055;-35.296;149.168;2023-05-08T05:31:55;0;0;
61815;PMS5003;57055;-35.296;149.168;2023-05-08T05:34:24;0;0;
61815;PMS5003;57055;-35.296;149.168;2023-05-08T05:36:53;0;0;
61815;PMS5003;57055;-35.296;149.168;2023-05-08T05:39:21;0;0;
61815;PMS5003;57055;-35.296;149.168;2023-05-08T05:41:50;0;0;
61815;PMS5003;57055;-35.296;149.168;2023-05-08T05:44:19;0;0;
61815;PMS5003;57055;-35.296;149.168;2023-05-08T05:46:48;0;0;
61815;PMS5003;57055;-35.296;149.168;2023-05-08T05:49:16;0;0;
61815;PMS5003;57055;-35.296;149.168;2023-05-08T05:51:45;0;0;
61815;PMS5003;57055;-35.296;149.168;2023-05-08T05:54:14;0;0;
61815;PMS5003;57055;-35.296;149.168;2023-05-08T05:56:43;0;0;
61815;PMS5003;57055;-35.296;149.168;2023-05-08T05:59:11;0;0;
61815;PMS5003;57055;-35.296;149.168;2023-05-08T06:01:40;0;0;
61815;PMS5003;57055;-35.296;149.168;2023-05-08T06:04:09;0;0;
61815;PMS5003;57055;-35.296;149.168;2023-05-08T06:06:37;0;0;
61815;PMS5003;57055;-35.296;149.168;2023-05-08T06:09:06;0;0;
61815;PMS5003;57055;-35.296;149.168;2023-05-08T06:11:37;0;0;
61815;PMS5003;57055;-35.296;149.168;2023-05-08T06:14:06;0;0;
61815;PMS5003;57055;-35.296;149.168;2023-05-08T06:16:35;0;0;
61815;PMS5003;57055;-35.296;149.168;2023-05-08T06:19:04;0;0;
61815;PMS5003;57055;-35.296;149.168;2023-05-08T06:21:34;0;0;
61815;PMS5003;57055;-35.296;149.168;2023-05-08T06:24:03;0;0;
61815;PMS5003;57055;-35.296;149.168;2023-05-08T06:26:32;0;0;
61815;PMS5003;57055;-35.296;149.168;2023-05-08T06:29:00;0;0;
61815;PMS5003;57055;-35.296;149.168;2023-05-08T06:31:29;0;0;
61815;PMS5003;57055;-35.296;149.168;2023-05-08T06:33:58;0;0;
61815;PMS5003;57055;-35.296;149.168;2023-05-08T06:36:27;0;0;
61815;PMS5003;57055;-35.296;149.168;2023-05-08T06:38:55;0;0;
61815;PMS5003;57055;-35.296;149.168;2023-05-08T06:41:24;0;0;
61815;PMS5003;57055;-35.296;149.168;2023-05-08T06:43:53;0;0;
61815;PMS5003;57055;-35.296;149.168;2023-05-08T06:46:22;0;0;
61815;PMS5003;57055;-35.296;149.168;2023-05-08T06:48:50;0;0;
61815;PMS5003;57055;-35.296;149.168;2023-05-08T06:51:19;0;0;
61815;PMS5003;57055;-35.296;149.168;2023-05-08T06:53:48;0;0;
61815;PMS5003;57055;-35.296;149.168;2023-05-08T06:56:17;0;0;
61815;PMS5003;57055;-35.296;149.168;2023-05-08T06:58:45;0;0;
61815;PMS5003;57055;-35.296;149.168;2023-05-08T07:01:14;0;0;
61815;PMS5003;57055;-35.296;149.168;2023-05-08T07:03:43;0;0;
61815;PMS5003;57055;-35.296;149.168;2023-05-08T07:06:12;0;0;
61815;PMS5003;57055;-35.296;149.168;2023-05-08T07:08:40;0;0;
61815;PMS5003;57055;-35.296;149.168;2023-05-08T07:11:09;0;0;
61815;PMS5003;57055;-35.296;149.168;2023-05-08T07:13:38;0;0;
61815;PMS5003;57055;-35.296;149.168;2023-05-08T07:16:08;2;0;
61815;PMS5003;57055;-35.296;149.168;2023-05-08T07:18:37;0;0;
61815;PMS5003;57055;-35.296;149.168;2023-05-08T07:21:06;0;0;
61815;PMS5003;57055;-35.296;149.168;2023-05-08T07:23:35;0;0;
61815;PMS5003;57055;-35.296;149.168;2023-05-08T07:26:04;0;0;
61815;PMS5003;57055;-35.296;149.168;2023-05-08T07:28:33;0;0;
61815;PMS5003;57055;-35.296;149.168;2023-05-08T07:31:03;0;0;
61815;PMS5003;57055;-35.296;149.168;2023-05-08T07:33:33;0;0;
61815;PMS5003;57055;-35.296;149.168;2023-05-08T07:36:01;1;1;
61815;PMS5003;57055;-35.296;149.168;2023-05-08T07:38:30;0;0;
61815;PMS5003;57055;-35.296;149.168;2023-05-08T07:40:59;1;1;
61815;PMS5003;57055;-35.296;149.168;2023-05-08T07:43:27;1;1;
61815;PMS5003;57055;-35.296;149.168;2023-05-08T07:45:56;0;0;
61815;PMS5003;57055;-35.296;149.168;2023-05-08T07:48:26;0;0;
61815;PMS5003;57055;-35.296;149.168;2023-05-08T07:50:55;1;1;
61815;PMS5003;57055;-35.296;149.168;2023-05-08T07:53:23;0;0;
61815;PMS5003;57055;-35.296;149.168;2023-05-08T07:55:52;0;0;
61815;PMS5003;57055;-35.296;149.168;2023-05-08T07:58:21;0;0;
61815;PMS5003;57055;-35.296;149.168;2023-05-08T08:00:50;0;0;
61815;PMS5003;57055;-35.296;149.168;2023-05-08T08:03:18;0;0;
61815;PMS5003;57055;-35.296;149.168;2023-05-08T08:05:47;0;0;
61815;PMS5003;57055;-35.296;149.168;2023-05-08T08:08:16;0;0;
61815;PMS5003;57055;-35.296;149.168;2023-05-08T08:10:45;0;0;
61815;PMS5003;57055;-35.296;149.168;2023-05-08T08:13:14;0;0;
61815;PMS5003;57055;-35.296;149.168;2023-05-08T08:15:43;2;0;
61815;PMS5003;57055;-35.296;149.168;2023-05-08T08:18:12;1;1;
61815;PMS5003;57055;-35.296;149.168;2023-05-08T08:20:41;1;1;
61815;PMS5003;57055;-35.296;149.168;2023-05-08T08:23:10;3;3;
61815;PMS5003;57055;-35.296;149.168;2023-05-08T08:25:40;0;0;
61815;PMS5003;57055;-35.296;149.168;2023-05-08T08:28:08;2;2;
61815;PMS5003;57055;-35.296;149.168;2023-05-08T08:30:37;3;1;
61815;PMS5003;57055;-35.296;149.168;2023-05-08T08:33:06;2;2;
61815;PMS5003;57055;-35.296;149.168;2023-05-08T08:35:35;2;1;
61815;PMS5003;57055;-35.296;149.168;2023-05-08T08:38:03;0;0;
61815;PMS5003;57055;-35.296;149.168;2023-05-08T08:40:33;1;1;
61815;PMS5003;57055;-35.296;149.168;2023-05-08T08:43:07;1;1;
61815;PMS5003;57055;-35.296;149.168;2023-05-08T08:45:36;1;1;
61815;PMS5003;57055;-35.296;149.168;2023-05-08T08:48:07;1;1;
61815;PMS5003;57055;-35.296;149.168;2023-05-08T08:50:41;0;0;
61815;PMS5003;57055;-35.296;149.168;2023-05-08T08:53:17;9;9;
61815;PMS5003;57055;-35.296;149.168;2023-05-08T08:55:52;3;3;
61815;PMS5003;57055;-35.296;149.168;2023-05-08T08:58:25;2;2;
61815;PMS5003;57055;-35.296;149.168;2023-05-08T09:00:59;1;1;
61815;PMS5003;57055;-35.296;149.168;2023-05-08T09:03:29;1;1;
61815;PMS5003;57055;-35.296;149.168;2023-05-08T09:05:58;1;1;
61815;PMS5003;57055;-35.296;149.168;2023-05-08T09:08:27;1;1;
61815;PMS5003;57055;-35.296;149.168;2023-05-08T09:10:57;1;1;
61815;PMS5003;57055;-35.296;149.168;2023-05-08T09:13:27;0;0;
61815;PMS5003;57055;-35.296;149.168;2023-05-08T09:15:56;1;1;
61815;PMS5003;57055;-35.296;149.168;2023-05-08T09:18:27;1;1;
61815;PMS5003;57055;-35.296;149.168;2023-05-08T09:20:56;0;0;
61815;PMS5003;57055;-35.296;149.168;2023-05-08T09:23:26;1;1;
61815;PMS5003;57055;-35.296;149.168;2023-05-08T09:25:56;3;2;
61815;PMS5003;57055;-35.296;149.168;2023-05-08T09:28:25;0;0;
61815;PMS5003;57055;-35.296;149.168;2023-05-08T09:30:54;1;1;
61815;PMS5003;57055;-35.296;149.168;2023-05-08T09:33:26;1;1;
61815;PMS5003;57055;-35.296;149.168;2023-05-08T09:35:56;1;1;
61815;PMS5003;57055;-35.296;149.168;2023-05-08T09:38:32;1;1;
61815;PMS5003;57055;-35.296;149.168;2023-05-08T09:41:06;1;1;
61815;PMS5003;57055;-35.296;149.168;2023-05-08T09:43:37;4;2;
61815;PMS5003;57055;-35.296;149.168;2023-05-08T09:46:23;0;0;
61815;PMS5003;57055;-35.296;149.168;2023-05-08T09:48:53;3;0;
61815;PMS5003;57055;-35.296;149.168;2023-05-08T09:51:23;1;1;
61815;PMS5003;57055;-35.296;149.168;2023-05-08T09:53:54;0;0;
61815;PMS5003;57055;-35.296;149.168;2023-05-08T09:56:39;3;3;
61815;PMS5003;57055;-35.296;149.168;2023-05-08T09:59:23;1;1;
61815;PMS5003;57055;-35.296;149.168;2023-05-08T10:01:53;2;1;
61815;PMS5003;57055;-35.296;149.168;2023-05-08T10:04:38;2;2;
61815;PMS5003;57055;-35.296;149.168;2023-05-08T10:07:06;1;1;
61815;PMS5003;57055;-35.296;149.168;2023-05-08T10:09:35;0;0;
61815;PMS5003;57055;-35.296;149.168;2023-05-08T10:12:04;2;1;
61815;PMS5003;57055;-35.296;149.168;2023-05-08T10:14:34;0;0;
61815;PMS5003;57055;-35.296;149.168;2023-05-08T10:17:02;1;1;
61815;PMS5003;57055;-35.296;149.168;2023-05-08T10:19:37;2;1;
61815;PMS5003;57055;-35.296;149.168;2023-05-08T10:22:10;3;1;
61815;PMS5003;57055;-35.296;149.168;2023-05-08T10:24:41;1;1;
61815;PMS5003;57055;-35.296;149.168;2023-05-08T10:27:16;1;1;
61815;PMS5003;57055;-35.296;149.168;2023-05-08T10:29:51;0;0;
61815;PMS5003;57055;-35.296;149.168;2023-05-08T10:32:22;2;2;
61815;PMS5003;57055;-35.296;149.168;2023-05-08T10:34:52;1;1;
61815;PMS5003;57055;-35.296;149.168;2023-05-08T10:37:25;1;1;
61815;PMS5003;57055;-35.296;149.168;2023-05-08T10:39:59;1;1;
61815;PMS5003;57055;-35.296;149.168;2023-05-08T10:42:30;1;1;
61815;PMS5003;57055;-35.296;149.168;2023-05-08T10:45:01;1;1;
61815;PMS5003;57055;-35.296;149.168;2023-05-08T10:47:39;1;1;
61815;PMS5003;57055;-35.296;149.168;2023-05-08T10:50:27;2;2;
61815;PMS5003;57055;-35.296;149.168;2023-05-08T10:53:09;1;1;
61815;PMS5003;57055;-35.296;149.168;2023-05-08T10:55:44;3;1;
61815;PMS5003;57055;-35.296;149.168;2023-05-08T10:58:28;1;1;
61815;PMS5003;57055;-35.296;149.168;2023-05-08T11:01:14;1;1;
61815;PMS5003;57055;-35.296;149.168;2023-05-08T11:03:45;2;2;
61815;PMS5003;57055;-35.296;149.168;2023-05-08T11:06:15;1;1;
61815;PMS5003;57055;-35.296;149.168;2023-05-08T11:08:46;1;1;
61815;PMS5003;57055;-35.296;149.168;2023-05-08T11:11:25;1;1;
61815;PMS5003;57055;-35.296;149.168;2023-05-08T11:13:58;2;2;
61815;PMS5003;57055;-35.296;149.168;2023-05-08T11:17:13;2;2;
61815;PMS5003;57055;-35.296;149.168;2023-05-08T11:19:58;2;2;
61815;PMS5003;57055;-35.296;149.168;2023-05-08T11:22:29;3;2;
61815;PMS5003;57055;-35.296;149.168;2023-05-08T11:24:59;2;2;
61815;PMS5003;57055;-35.296;149.168;2023-05-08T11:27:38;0;0;
61815;PMS5003;57055;-35.296;149.168;2023-05-08T11:30:37;0;0;
61815;PMS5003;57055;-35.296;149.168;2023-05-08T11:33:13;2;2;
61815;PMS5003;57055;-35.296;149.168;2023-05-08T11:35:44;0;0;
61815;PMS5003;57055;-35.296;149.168;2023-05-08T11:38:18;2;2;
61815;PMS5003;57055;-35.296;149.168;2023-05-08T11:40:56;1;1;
61815;PMS5003;57055;-35.296;149.168;2023-05-08T11:43:30;3;3;
61815;PMS5003;57055;-35.296;149.168;2023-05-08T11:46:16;4;3;
61815;PMS5003;57055;-35.296;149.168;2023-05-08T11:48:47;2;2;
61815;PMS5003;57055;-35.296;149.168;2023-05-08T11:51:24;2;2;
61815;PMS5003;57055;-35.296;149.168;2023-05-08T11:53:56;2;2;
61815;PMS5003;57055;-35.296;149.168;2023-05-08T11:56:27;1;1;
61815;PMS5003;57055;-35.296;149.168;2023-05-08T11:59:05;2;2;
61815;PMS5003;57055;-35.296;149.168;2023-05-08T12:01:36;2;2;
61815;PMS5003;57055;-35.296;149.168;2023-05-08T12:04:06;3;3;
61815;PMS5003;57055;-35.296;149.168;2023-05-08T12:06:38;3;3;
61815;PMS5003;57055;-35.296;149.168;2023-05-08T12:09:09;2;2;
61815;PMS5003;57055;-35.296;149.168;2023-05-08T12:11:39;2;2;
61815;PMS5003;57055;-35.296;149.168;2023-05-08T12:14:09;2;2;
61815;PMS5003;57055;-35.296;149.168;2023-05-08T12:16:39;1;1;
61815;PMS5003;57055;-35.296;149.168;2023-05-08T12:19:08;2;2;
61815;PMS5003;57055;-35.296;149.168;2023-05-08T12:21:40;3;3;
61815;PMS5003;57055;-35.296;149.168;2023-05-08T12:24:14;3;3;
61815;PMS5003;57055;-35.296;149.168;2023-05-08T12:26:43;1;1;
61815;PMS5003;57055;-35.296;149.168;2023-05-08T12:29:17;3;3;
61815;PMS5003;57055;-35.296;149.168;2023-05-08T12:31:46;3;3;
61815;PMS5003;57055;-35.296;149.168;2023-05-08T12:34:16;3;2;
61815;PMS5003;57055;-35.296;149.168;2023-05-08T12:36:46;2;2;
61815;PMS5003;57055;-35.296;149.168;2023-05-08T12:39:16;3;3;
61815;PMS5003;57055;-35.296;149.168;2023-05-08T12:41:47;2;2;
61815;PMS5003;57055;-35.296;149.168;2023-05-08T12:44:18;1;1;
61815;PMS5003;57055;-35.296;149.168;2023-05-08T12:46:49;3;3;
61815;PMS5003;57055;-35.296;149.168;2023-05-08T12:49:24;4;3;
61815;PMS5003;57055;-35.296;149.168;2023-05-08T12:52:01;2;2;
61815;PMS5003;57055;-35.296;149.168;2023-05-08T12:54:32;2;2;
61815;PMS5003;57055;-35.296;149.168;2023-05-08T12:57:08;4;2;
61815;PMS5003;57055;-35.296;149.168;2023-05-08T12:59:37;3;3;
61815;PMS5003;57055;-35.296;149.168;2023-05-08T13:02:11;2;2;
61815;PMS5003;57055;-35.296;149.168;2023-05-08T13:04:42;1;1;
61815;PMS5003;57055;-35.296;149.168;2023-05-08T13:07:12;1;1;
61815;PMS5003;57055;-35.296;149.168;2023-05-08T13:09:57;1;1;
61815;PMS5003;57055;-35.296;149.168;2023-05-08T13:12:27;1;1;
61815;PMS5003;57055;-35.296;149.168;2023-05-08T13:14:56;2;2;
61815;PMS5003;57055;-35.296;149.168;2023-05-08T13:17:25;2;2;
61815;PMS5003;57055;-35.296;149.168;2023-05-08T13:19:53;2;2;
61815;PMS5003;57055;-35.296;149.168;2023-05-08T13:22:23;4;2;
61815;PMS5003;57055;-35.296;149.168;2023-05-08T13:24:52;2;2;
61815;PMS5003;57055;-35.296;149.168;2023-05-08T13:27:21;2;2;
61815;PMS5003;57055;-35.296;149.168;2023-05-08T13:29:50;1;1;
61815;PMS5003;57055;-35.296;149.168;2023-05-08T13:32:19;3;2;
61815;PMS5003;57055;-35.296;149.168;2023-05-08T13:34:48;2;2;
61815;PMS5003;57055;-35.296;149.168;2023-05-08T13:37:17;1;1;
61815;PMS5003;57055;-35.296;149.168;2023-05-08T13:39:46;2;2;
61815;PMS5003;57055;-35.296;149.168;2023-05-08T13:42:15;5;3;
61815;PMS5003;57055;-35.296;149.168;2023-05-08T13:44:43;2;2;
61815;PMS5003;57055;-35.296;149.168;2023-05-08T13:47:12;3;3;
61815;PMS5003;57055;-35.296;149.168;2023-05-08T13:49:41;2;2;
61815;PMS5003;57055;-35.296;149.168;2023-05-08T13:52:10;2;2;
61815;PMS5003;57055;-35.296;149.168;2023-05-08T13:54:39;3;3;
61815;PMS5003;57055;-35.296;149.168;2023-05-08T13:57:08;5;3;
61815;PMS5003;57055;-35.296;149.168;2023-05-08T13:59:37;3;3;
61815;PMS5003;57055;-35.296;149.168;2023-05-08T14:02:06;5;3;
61815;PMS5003;57055;-35.296;149.168;2023-05-08T14:04:36;3;3;
61815;PMS5003;57055;-35.296;149.168;2023-05-08T14:07:05;4;3;
61815;PMS5003;57055;-35.296;149.168;2023-05-08T14:09:34;3;2;
61815;PMS5003;57055;-35.296;149.168;2023-05-08T14:12:03;3;3;
61815;PMS5003;57055;-35.296;149.168;2023-05-08T14:14:31;4;3;
61815;PMS5003;57055;-35.296;149.168;2023-05-08T14:17:00;4;4;
61815;PMS5003;57055;-35.296;149.168;2023-05-08T14:19:30;3;3;
61815;PMS5003;57055;-35.296;149.168;2023-05-08T14:21:59;3;3;
61815;PMS5003;57055;-35.296;149.168;2023-05-08T14:24:29;4;3;
61815;PMS5003;57055;-35.296;149.168;2023-05-08T14:26:58;2;2;
61815;PMS5003;57055;-35.296;149.168;2023-05-08T14:29:27;5;5;
61815;PMS5003;57055;-35.296;149.168;2023-05-08T14:31:56;4;4;
61815;PMS5003;57055;-35.296;149.168;2023-05-08T14:34:25;3;3;
61815;PMS5003;57055;-35.296;149.168;2023-05-08T14:36:54;4;4;
61815;PMS5003;57055;-35.296;149.168;2023-05-08T14:39:23;4;4;
61815;PMS5003;57055;-35.296;149.168;2023-05-08T14:41:52;5;4;
61815;PMS5003;57055;-35.296;149.168;2023-05-08T14:44:21;5;3;
61815;PMS5003;57055;-35.296;149.168;2023-05-08T14:46:50;3;3;
61815;PMS5003;57055;-35.296;149.168;2023-05-08T14:49:19;3;3;
61815;PMS5003;57055;-35.296;149.168;2023-05-08T14:51:48;5;5;
61815;PMS5003;57055;-35.296;149.168;2023-05-08T14:54:17;5;5;
61815;PMS5003;57055;-35.296;149.168;2023-05-08T14:56:46;4;4;
61815;PMS5003;57055;-35.296;149.168;2023-05-08T14:59:14;5;5;
61815;PMS5003;57055;-35.296;149.168;2023-05-08T15:01:43;5;5;
61815;PMS5003;57055;-35.296;149.168;2023-05-08T15:04:12;5;5;
61815;PMS5003;57055;-35.296;149.168;2023-05-08T15:06:41;6;5;
61815;PMS5003;57055;-35.296;149.168;2023-05-08T15:09:10;4;4;
61815;PMS5003;57055;-35.296;149.168;2023-05-08T15:11:39;6;4;
61815;PMS5003;57055;-35.296;149.168;2023-05-08T15:14:08;6;5;
61815;PMS5003;57055;-35.296;149.168;2023-05-08T15:16:37;5;5;
61815;PMS5003;57055;-35.296;149.168;2023-05-08T15:19:06;5;5;
61815;PMS5003;57055;-35.296;149.168;2023-05-08T15:21:35;7;5;
61815;PMS5003;57055;-35.296;149.168;2023-05-08T15:24:04;5;5;
61815;PMS5003;57055;-35.296;149.168;2023-05-08T15:26:35;5;4;
61815;PMS5003;57055;-35.296;149.168;2023-05-08T15:29:04;5;5;
61815;PMS5003;57055;-35.296;149.168;2023-05-08T15:31:33;4;4;
61815;PMS5003;57055;-35.296;149.168;2023-05-08T15:34:02;7;6;
61815;PMS5003;57055;-35.296;149.168;2023-05-08T15:36:31;5;5;
61815;PMS5003;57055;-35.296;149.168;2023-05-08T15:39:00;6;6;
61815;PMS5003;57055;-35.296;149.168;2023-05-08T15:41:29;6;5;
61815;PMS5003;57055;-35.296;149.168;2023-05-08T15:43:58;6;5;
61815;PMS5003;57055;-35.296;149.168;2023-05-08T15:46:27;6;6;
61815;PMS5003;57055;-35.296;149.168;2023-05-08T15:48:56;5;5;
61815;PMS5003;57055;-35.296;149.168;2023-05-08T15:51:25;4;4;
61815;PMS5003;57055;-35.296;149.168;2023-05-08T15:53:54;5;5;
61815;PMS5003;57055;-35.296;149.168;2023-05-08T15:56:23;5;5;
61815;PMS5003;57055;-35.296;149.168;2023-05-08T15:58:52;5;5;
61815;PMS5003;57055;-35.296;149.168;2023-05-08T16:01:21;9;6;
61815;PMS5003;57055;-35.296;149.168;2023-05-08T16:03:50;6;6;
61815;PMS5003;57055;-35.296;149.168;2023-05-08T16:06:19;6;6;
61815;PMS5003;57055;-35.296;149.168;2023-05-08T16:08:48;7;7;
61815;PMS5003;57055;-35.296;149.168;2023-05-08T16:11:18;7;7;
61815;PMS5003;57055;-35.296;149.168;2023-05-08T16:13:46;8;7;
61815;PMS5003;57055;-35.296;149.168;2023-05-08T16:16:15;11;9;
61815;PMS5003;57055;-35.296;149.168;2023-05-08T16:18:44;8;8;
61815;PMS5003;57055;-35.296;149.168;2023-05-08T16:21:13;7;7;
61815;PMS5003;57055;-35.296;149.168;2023-05-08T16:23:42;11;10;
61815;PMS5003;57055;-35.296;149.168;2023-05-08T16:26:11;8;8;
61815;PMS5003;57055;-35.296;149.168;2023-05-08T16:28:40;8;8;